createdAt,value
2023-04-08T00:02:15.942Z,17.63
2023-04-08T00:04:43.741Z,15.93
2023-04-08T00:07:11.318Z,16.70
2023-04-08T00:09:39.000Z,16.70
2023-04-08T00:12:06.855Z,16.95
2023-04-08T00:14:34.278Z,16.70
2023-04-08T00:17:01.876Z,15.50
2023-04-08T00:19:29.363Z,16.77
2023-04-08T00:21:56.756Z,15.23
2023-04-08T00:24:24.396Z,15.27
2023-04-08T00:26:52.590Z,14.80
2023-04-08T00:29:20.162Z,14.20
2023-04-08T00:31:47.755Z,14.85
2023-04-08T00:34:15.530Z,15.00
2023-04-08T00:36:43.153Z,15.15
2023-04-08T00:39:10.736Z,14.93
2023-04-08T00:41:38.215Z,14.10
2023-04-08T00:44:05.899Z,15.82
2023-04-08T00:46:36.498Z,14.32
2023-04-08T00:49:04.297Z,15.63
2023-04-08T00:51:32.114Z,16.60
2023-04-08T00:54:00.875Z,15.45
2023-04-08T00:56:28.693Z,14.93
2023-04-08T00:58:56.419Z,15.50
2023-04-08T01:01:30.259Z,16.08
2023-04-08T01:03:57.919Z,15.77
2023-04-08T01:06:28.254Z,15.60
2023-04-08T01:08:58.326Z,14.57
2023-04-08T01:11:26.684Z,15.20
2023-04-08T01:13:55.588Z,15.57
2023-04-08T01:16:24.228Z,14.97
2023-04-08T01:18:53.149Z,16.23
2023-04-08T01:21:21.566Z,18.05
2023-04-08T01:24:07.889Z,16.95
2023-04-08T01:26:36.371Z,17.35
2023-04-08T01:29:04.488Z,16.07
2023-04-08T01:31:32.661Z,15.48
2023-04-08T01:34:01.348Z,15.80
2023-04-08T01:36:29.775Z,15.43
2023-04-08T01:38:57.256Z,17.60
2023-04-08T01:41:24.676Z,15.87
2023-04-08T01:43:52.929Z,16.42
2023-04-08T01:46:21.661Z,15.88
2023-04-08T01:48:50.045Z,15.07
2023-04-08T01:51:17.872Z,15.35
2023-04-08T01:53:45.509Z,13.97
2023-04-08T01:56:14.321Z,15.35
2023-04-08T01:58:52.711Z,14.27
2023-04-08T02:01:22.047Z,15.35
2023-04-08T02:03:52.278Z,14.35
2023-04-08T02:06:19.892Z,13.70
2023-04-08T02:08:47.462Z,12.57
2023-04-08T02:11:15.060Z,14.50
2023-04-08T02:13:42.775Z,15.07
2023-04-08T02:16:23.312Z,14.57
2023-04-08T02:18:57.174Z,14.40
2023-04-08T02:21:28.149Z,15.38
2023-04-08T02:23:56.159Z,13.05
2023-04-08T02:26:24.025Z,12.88
2023-04-08T02:28:52.269Z,14.38
2023-04-08T02:31:23.094Z,12.23
2023-04-08T02:33:52.047Z,12.07
2023-04-08T02:36:20.345Z,12.63
2023-04-08T02:38:51.462Z,11.70
2023-04-08T02:41:19.110Z,11.93
2023-04-08T02:43:48.097Z,11.50
2023-04-08T02:46:15.879Z,11.57
2023-04-08T02:48:43.443Z,12.85
2023-04-08T02:51:11.040Z,12.43
2023-04-08T02:53:38.535Z,12.25
2023-04-08T02:56:06.222Z,11.20
2023-04-08T02:58:34.236Z,10.93
2023-04-08T03:01:01.931Z,12.73
2023-04-08T03:03:31.450Z,11.38
2023-04-08T03:05:59.523Z,11.23
2023-04-08T03:08:27.444Z,11.43
2023-04-08T03:10:54.976Z,12.30
2023-04-08T03:13:22.575Z,13.18
2023-04-08T03:15:50.076Z,11.95
2023-04-08T03:18:18.013Z,11.32
2023-04-08T03:20:45.504Z,11.17
2023-04-08T03:23:13.093Z,10.32
2023-04-08T03:25:40.516Z,9.88
2023-04-08T03:28:07.913Z,11.10
2023-04-08T03:30:35.754Z,10.50
2023-04-08T03:33:07.362Z,10.83
2023-04-08T03:35:35.300Z,9.52
2023-04-08T03:38:02.805Z,10.25
2023-04-08T03:40:30.333Z,10.40
2023-04-08T03:42:57.823Z,10.20
2023-04-08T03:45:25.498Z,9.97
2023-04-08T03:47:53.079Z,10.68
2023-04-08T03:50:20.510Z,12.40
2023-04-08T03:52:48.010Z,11.50
2023-04-08T03:55:15.425Z,11.27
2023-04-08T03:57:42.982Z,11.97
2023-04-08T04:00:10.791Z,12.95
2023-04-08T04:02:41.170Z,12.52
2023-04-08T04:05:09.140Z,13.57
2023-04-08T04:07:36.590Z,13.57
2023-04-08T04:10:04.049Z,13.03
2023-04-08T04:12:31.453Z,13.10
2023-04-08T04:14:58.980Z,14.25
2023-04-08T04:17:26.375Z,13.75
2023-04-08T04:19:53.925Z,15.43
2023-04-08T04:22:21.298Z,13.90
2023-04-08T04:24:49.400Z,13.45
2023-04-08T04:27:17.726Z,14.20
2023-04-08T04:29:45.302Z,15.38
2023-04-08T04:32:13.020Z,13.68
2023-04-08T04:34:40.511Z,14.07
2023-04-08T04:37:08.121Z,15.85
2023-04-08T04:39:35.829Z,14.77
2023-04-08T04:42:03.691Z,15.73
2023-04-08T04:44:31.419Z,16.48
2023-04-08T04:46:58.925Z,17.20
2023-04-08T04:49:26.579Z,16.45
2023-04-08T04:51:54.000Z,16.88
2023-04-08T04:54:21.606Z,17.50
2023-04-08T04:56:49.308Z,16.60
2023-04-08T04:59:16.768Z,16.03
2023-04-08T05:01:44.354Z,18.33
2023-04-08T05:04:11.792Z,18.20
2023-04-08T05:06:39.291Z,15.60
2023-04-08T05:09:06.754Z,19.00
2023-04-08T05:11:34.224Z,18.83
2023-04-08T05:14:01.700Z,17.92
2023-04-08T05:16:29.140Z,18.55
2023-04-08T05:18:56.938Z,18.10
2023-04-08T05:21:24.708Z,17.85
2023-04-08T05:23:53.859Z,17.80
2023-04-08T05:26:24.221Z,17.25
2023-04-08T05:28:52.522Z,19.08
2023-04-08T05:31:20.746Z,18.02
2023-04-08T05:33:48.390Z,18.17
2023-04-08T05:36:16.182Z,17.27
2023-04-08T05:38:44.347Z,19.50
2023-04-08T05:41:11.898Z,18.38
2023-04-08T05:43:39.354Z,18.48
2023-04-08T05:46:08.246Z,19.83
2023-04-08T05:48:35.852Z,18.70
2023-04-08T05:51:03.722Z,18.85
2023-04-08T05:53:31.517Z,19.13
2023-04-08T05:55:59.114Z,19.55
2023-04-08T05:58:26.648Z,19.38
2023-04-08T06:00:55.732Z,18.10
2023-04-08T06:03:23.527Z,18.45
2023-04-08T06:05:51.507Z,20.73
2023-04-08T06:08:19.342Z,18.45
2023-04-08T06:10:51.146Z,19.55
2023-04-08T06:13:20.380Z,22.20
2023-04-08T06:15:49.087Z,20.67
2023-04-08T06:18:17.472Z,20.27
2023-04-08T06:20:45.102Z,19.38
2023-04-08T06:23:13.296Z,21.45
2023-04-08T06:25:40.716Z,19.07
2023-04-08T06:28:08.196Z,20.02
2023-04-08T06:30:35.918Z,19.10
2023-04-08T06:33:03.435Z,18.05
2023-04-08T06:35:32.606Z,20.92
2023-04-08T06:38:00.389Z,18.53
2023-04-08T06:40:28.167Z,17.92
2023-04-08T06:42:56.050Z,18.40
2023-04-08T06:45:39.804Z,17.85
2023-04-08T06:48:09.088Z,18.23
2023-04-08T06:50:36.768Z,16.40
2023-04-08T06:53:04.256Z,16.60
2023-04-08T06:55:31.837Z,19.02
2023-04-08T06:57:59.353Z,17.55
2023-04-08T07:00:27.344Z,17.95
2023-04-08T07:02:55.247Z,18.23
2023-04-08T07:05:23.079Z,16.52
2023-04-08T07:07:50.914Z,16.70
2023-04-08T07:10:18.728Z,17.90
2023-04-08T07:12:46.509Z,18.42
2023-04-08T07:15:13.948Z,19.20
2023-04-08T07:17:41.879Z,17.02
2023-04-08T07:20:09.619Z,18.50
2023-04-08T07:22:37.216Z,20.00
2023-04-08T07:25:04.747Z,17.90
2023-04-08T07:27:32.581Z,15.53
2023-04-08T07:30:00.109Z,14.63
2023-04-08T07:32:27.756Z,14.98
2023-04-08T07:34:55.512Z,12.32
2023-04-08T07:37:22.956Z,13.45
2023-04-08T07:39:50.386Z,11.80
2023-04-08T07:42:18.720Z,12.95
2023-04-08T07:44:46.851Z,13.02
2023-04-08T07:47:14.613Z,12.95
2023-04-08T07:49:42.322Z,13.77
2023-04-08T07:52:09.837Z,12.90
2023-04-08T07:54:37.742Z,12.07
2023-04-08T07:57:05.217Z,12.63
2023-04-08T07:59:32.824Z,11.85
2023-04-08T08:02:00.491Z,11.90
2023-04-08T08:04:28.452Z,11.97
2023-04-08T08:06:56.559Z,11.57
2023-04-08T08:09:24.016Z,12.15
2023-04-08T08:11:51.518Z,11.88
2023-04-08T08:14:19.198Z,13.10
2023-04-08T08:16:47.312Z,13.60
2023-04-08T08:19:15.113Z,13.35
2023-04-08T08:21:42.644Z,12.45
2023-04-08T08:24:10.669Z,13.45
2023-04-08T08:26:38.248Z,12.75
2023-04-08T08:29:08.768Z,11.63
2023-04-08T08:31:36.894Z,11.27
2023-04-08T08:34:04.487Z,12.15
2023-04-08T08:36:33.487Z,11.35
2023-04-08T08:39:02.306Z,12.10
2023-04-08T08:41:34.331Z,11.73
2023-04-08T08:44:03.931Z,11.38
2023-04-08T08:46:31.550Z,11.90
2023-04-08T08:48:59.372Z,11.15
2023-04-08T08:51:28.293Z,11.98
2023-04-08T08:53:56.005Z,11.87
2023-04-08T08:56:23.330Z,11.70
2023-04-08T08:58:50.785Z,10.80
2023-04-08T09:01:51.173Z,9.88
2023-04-08T09:04:20.497Z,10.63
2023-04-08T09:06:50.321Z,9.80
2023-04-08T09:09:21.296Z,11.40
2023-04-08T09:11:48.670Z,11.45
2023-04-08T09:14:19.204Z,10.15
2023-04-08T09:16:46.853Z,10.57
2023-04-08T09:19:14.647Z,9.67
2023-04-08T09:21:42.401Z,8.52
2023-04-08T09:24:11.181Z,9.20
2023-04-08T09:26:38.709Z,9.57
2023-04-08T09:29:18.343Z,9.10
2023-04-08T09:31:56.795Z,10.00
2023-04-08T09:34:24.546Z,9.80
2023-04-08T09:36:52.824Z,9.32
2023-04-08T09:39:20.528Z,8.45
2023-04-08T09:41:52.414Z,9.82
2023-04-08T09:44:21.363Z,9.10
2023-04-08T09:46:52.844Z,9.30
2023-04-08T09:49:20.623Z,9.98
2023-04-08T09:51:59.553Z,8.88
2023-04-08T09:54:32.634Z,9.85
2023-04-08T09:57:06.221Z,8.83
2023-04-08T09:59:36.737Z,8.88
2023-04-08T10:02:07.993Z,9.00
2023-04-08T10:04:37.369Z,8.57
2023-04-08T10:07:05.745Z,9.25
2023-04-08T10:09:33.770Z,10.53
2023-04-08T10:12:02.176Z,10.40
2023-04-08T10:14:29.681Z,8.32
2023-04-08T10:17:16.557Z,8.80
2023-04-08T10:19:44.663Z,8.85
2023-04-08T10:22:31.942Z,8.27
2023-04-08T10:25:17.973Z,8.68
2023-04-08T10:27:46.472Z,9.25
2023-04-08T10:30:29.190Z,8.15
2023-04-08T10:32:57.597Z,7.57
2023-04-08T10:35:31.986Z,9.57
2023-04-08T10:37:59.960Z,7.80
2023-04-08T10:40:27.725Z,7.93
2023-04-08T10:42:58.514Z,7.95
2023-04-08T10:45:26.111Z,7.15
2023-04-08T10:47:53.447Z,7.30
2023-04-08T10:50:24.276Z,7.20
2023-04-08T10:52:52.442Z,7.82
2023-04-08T10:55:29.657Z,7.18
2023-04-08T10:57:58.184Z,7.22
2023-04-08T11:00:38.861Z,7.53
2023-04-08T11:03:11.289Z,6.70
2023-04-08T11:05:39.991Z,6.38
2023-04-08T11:08:07.414Z,6.70
2023-04-08T11:10:39.178Z,6.30
2023-04-08T11:13:12.983Z,6.07
2023-04-08T11:15:40.436Z,5.88
2023-04-08T11:18:08.492Z,5.75
2023-04-08T11:20:37.308Z,5.97
2023-04-08T11:23:04.698Z,5.85
2023-04-08T11:25:32.418Z,6.40
2023-04-08T11:28:00.815Z,6.57
2023-04-08T11:30:28.333Z,6.75
2023-04-08T11:32:57.057Z,6.45
2023-04-08T11:35:24.686Z,6.30
2023-04-08T11:37:54.101Z,6.23
2023-04-08T11:40:22.898Z,6.30
2023-04-08T11:42:50.562Z,6.15
2023-04-08T11:45:19.911Z,6.47
2023-04-08T11:47:47.596Z,6.35
2023-04-08T11:50:24.296Z,6.40
2023-04-08T11:52:52.264Z,6.47
2023-04-08T11:55:24.434Z,6.18
2023-04-08T11:57:55.317Z,5.82
2023-04-08T12:00:23.341Z,5.90
2023-04-08T12:02:52.949Z,6.07
2023-04-08T12:05:21.232Z,6.70
2023-04-08T12:07:48.780Z,6.80
2023-04-08T12:10:16.542Z,6.38
2023-04-08T12:12:44.154Z,6.50
2023-04-08T12:15:12.145Z,7.07
2023-04-08T12:17:39.555Z,8.20
2023-04-08T12:20:07.788Z,6.38
2023-04-08T12:22:35.369Z,6.88
2023-04-08T12:25:04.008Z,6.35
2023-04-08T12:27:33.605Z,6.97
2023-04-08T12:30:01.309Z,6.90
2023-04-08T12:32:28.970Z,6.65
2023-04-08T12:34:56.455Z,6.80
2023-04-08T12:37:24.419Z,7.07
2023-04-08T12:39:51.826Z,7.10
2023-04-08T12:42:19.426Z,7.00
2023-04-08T12:44:46.851Z,7.40
2023-04-08T12:47:14.482Z,7.10
2023-04-08T12:49:49.212Z,7.25
2023-04-08T12:52:17.500Z,6.57
2023-04-08T12:54:45.678Z,6.75
2023-04-08T12:57:13.578Z,7.28
2023-04-08T12:59:41.058Z,6.95
2023-04-08T13:02:08.621Z,6.78
2023-04-08T13:04:36.227Z,7.00
2023-04-08T13:07:04.559Z,6.45
2023-04-08T13:09:32.145Z,6.57
2023-04-08T13:11:59.835Z,6.72
2023-04-08T13:14:27.533Z,7.20
2023-04-08T13:16:54.938Z,7.50
2023-04-08T13:19:22.333Z,9.63
2023-04-08T13:21:49.768Z,6.68
2023-04-08T13:24:17.188Z,7.38
2023-04-08T13:26:44.726Z,8.20
2023-04-08T13:29:12.275Z,7.47
2023-04-08T13:31:39.956Z,7.43
2023-04-08T13:34:07.630Z,7.90
2023-04-08T13:36:35.093Z,7.70
2023-04-08T13:39:02.488Z,8.35
2023-04-08T13:41:30.142Z,7.23
2023-04-08T13:43:57.818Z,7.88
2023-04-08T13:46:25.660Z,7.20
2023-04-08T13:48:53.723Z,7.90
2023-04-08T13:51:21.946Z,8.80
2023-04-08T13:53:49.562Z,7.57
2023-04-08T13:56:17.261Z,7.28
2023-04-08T13:58:49.654Z,7.35
2023-04-08T14:01:20.087Z,6.65
2023-04-08T14:03:49.959Z,7.45
2023-04-08T14:06:17.443Z,6.80
2023-04-08T14:08:44.992Z,7.10
2023-04-08T14:11:12.778Z,7.10
2023-04-08T14:13:40.093Z,12.10
2023-04-08T14:16:07.785Z,9.07
2023-04-08T14:18:35.469Z,7.20
2023-04-08T14:21:03.693Z,7.25
2023-04-08T14:23:31.164Z,7.03
2023-04-08T14:25:58.541Z,7.43
2023-04-08T14:28:26.119Z,10.25
2023-04-08T14:30:53.530Z,10.37
2023-04-08T14:33:21.138Z,9.32
2023-04-08T14:35:48.612Z,10.02
2023-04-08T14:38:16.315Z,10.15
2023-04-08T14:40:43.916Z,10.20
2023-04-08T14:43:12.676Z,7.30
2023-04-08T14:45:40.329Z,8.07
2023-04-08T14:48:07.874Z,9.23
2023-04-08T14:50:35.688Z,7.53
2023-04-08T14:53:03.534Z,7.25
2023-04-08T14:55:32.608Z,8.17
2023-04-08T14:58:01.240Z,9.50
2023-04-08T15:00:28.928Z,9.60
2023-04-08T15:02:56.652Z,11.10
2023-04-08T15:05:24.405Z,11.07
2023-04-08T15:07:52.094Z,10.90
2023-04-08T15:10:19.670Z,8.60
2023-04-08T15:12:47.590Z,9.27
2023-04-08T15:15:15.018Z,10.40
2023-04-08T15:17:42.484Z,9.32
2023-04-08T15:20:10.378Z,9.57
2023-04-08T15:22:37.844Z,8.82
2023-04-08T15:25:05.591Z,9.07
2023-04-08T15:27:33.064Z,8.93
2023-04-08T15:30:00.454Z,9.77
2023-04-08T15:32:27.961Z,8.77
2023-04-08T15:34:55.409Z,9.23
2023-04-08T15:37:23.157Z,9.52
2023-04-08T15:39:50.573Z,8.18
2023-04-08T15:42:18.124Z,9.02
2023-04-08T15:44:45.601Z,7.73
2023-04-08T15:47:13.245Z,8.02
2023-04-08T15:49:41.477Z,8.07
2023-04-08T15:52:09.000Z,7.88
2023-04-08T15:54:36.802Z,8.13
2023-04-08T15:57:04.214Z,8.00
2023-04-08T15:59:32.325Z,7.50
2023-04-08T16:02:00.222Z,8.05
2023-04-08T16:04:28.028Z,10.00
2023-04-08T16:06:55.827Z,9.13
2023-04-08T16:09:26.868Z,8.10
2023-04-08T16:11:54.645Z,8.32
2023-04-08T16:14:22.138Z,9.77
2023-04-08T16:16:49.652Z,10.15
2023-04-08T16:19:17.311Z,8.93
2023-04-08T16:21:45.232Z,7.60
2023-04-08T16:24:12.685Z,7.60
2023-04-08T16:26:40.953Z,8.73
2023-04-08T16:29:08.632Z,8.15
2023-04-08T16:31:36.220Z,9.00
2023-04-08T16:34:05.156Z,8.13
2023-04-08T16:36:32.560Z,10.73
2023-04-08T16:39:00.115Z,10.15
2023-04-08T16:41:27.688Z,10.40
2023-04-08T16:43:55.191Z,15.52
2023-04-08T16:46:23.121Z,11.40
2023-04-08T16:48:50.649Z,9.80
2023-04-08T16:51:18.866Z,9.73
2023-04-08T16:53:46.299Z,10.10
2023-04-08T16:56:14.991Z,9.73
2023-04-08T16:58:43.110Z,8.77
2023-04-08T17:01:11.230Z,8.60
2023-04-08T17:03:39.069Z,8.73
2023-04-08T17:06:10.533Z,9.63
2023-04-08T17:08:38.491Z,9.38
2023-04-08T17:11:16.132Z,8.77
2023-04-08T17:13:43.961Z,8.50
2023-04-08T17:16:15.891Z,14.20
2023-04-08T17:18:45.143Z,13.50
2023-04-08T17:21:14.103Z,12.40
2023-04-08T17:23:41.716Z,12.73
2023-04-08T17:26:09.486Z,10.45
2023-04-08T17:28:37.174Z,12.02
2023-04-08T17:31:04.741Z,13.20
2023-04-08T17:33:34.010Z,15.18
2023-04-08T17:36:01.628Z,12.57
2023-04-08T17:38:29.228Z,11.93
2023-04-08T17:40:56.867Z,11.65
2023-04-08T17:43:24.707Z,12.70
2023-04-08T17:45:53.313Z,12.63
2023-04-08T17:48:20.853Z,11.60
2023-04-08T17:50:48.333Z,10.80
2023-04-08T17:53:15.940Z,16.45
2023-04-08T17:55:43.497Z,18.98
2023-04-08T17:58:13.562Z,13.18
2023-04-08T18:00:41.074Z,11.77
2023-04-08T18:03:09.834Z,11.30
2023-04-08T18:05:37.665Z,12.50
2023-04-08T18:08:05.545Z,12.02
2023-04-08T18:10:33.124Z,12.68
2023-04-08T18:13:11.171Z,13.13
2023-04-08T18:15:39.358Z,12.30
2023-04-08T18:18:07.072Z,12.18
2023-04-08T18:20:37.813Z,11.23
2023-04-08T18:23:05.598Z,11.23
2023-04-08T18:25:34.602Z,11.10
2023-04-08T18:28:02.147Z,11.40
2023-04-08T18:30:30.811Z,11.63
2023-04-08T18:32:58.574Z,12.30
2023-04-08T18:35:26.440Z,12.63
2023-04-08T18:37:54.078Z,12.57
2023-04-08T18:40:21.679Z,12.73
2023-04-08T18:42:49.492Z,12.43
2023-04-08T18:45:17.192Z,12.30
2023-04-08T18:47:45.159Z,13.48
2023-04-08T18:50:12.721Z,13.23
2023-04-08T18:52:40.586Z,12.95
2023-04-08T18:55:08.396Z,12.75
2023-04-08T18:57:36.795Z,13.55
2023-04-08T19:00:04.998Z,11.93
2023-04-08T19:02:33.390Z,13.67
2023-04-08T19:05:01.124Z,14.02
2023-04-08T19:07:28.846Z,14.60
2023-04-08T19:09:59.662Z,14.48
2023-04-08T19:12:27.465Z,13.68
2023-04-08T19:14:55.288Z,15.27
2023-04-08T19:17:23.607Z,13.20
2023-04-08T19:19:52.023Z,13.90
2023-04-08T19:22:19.533Z,14.32
2023-04-08T19:24:47.618Z,14.98
2023-04-08T19:27:16.150Z,13.63
2023-04-08T19:29:43.585Z,14.23
2023-04-08T19:32:11.130Z,15.85
2023-04-08T19:34:39.208Z,15.60
2023-04-08T19:37:07.516Z,13.63
2023-04-08T19:39:35.091Z,15.87
2023-04-08T19:42:02.634Z,15.65
2023-04-08T19:44:30.766Z,14.20
2023-04-08T19:46:58.222Z,16.70
2023-04-08T19:49:25.683Z,14.63
2023-04-08T19:51:53.275Z,16.07
2023-04-08T19:54:21.871Z,17.58
2023-04-08T19:56:49.625Z,15.02
2023-04-08T19:59:17.104Z,14.82
2023-04-08T20:01:44.727Z,14.73
2023-04-08T20:04:12.460Z,18.40
2023-04-08T20:06:40.373Z,20.38
2023-04-08T20:09:07.882Z,16.52
2023-04-08T20:11:35.549Z,16.48
2023-04-08T20:14:04.444Z,16.10
2023-04-08T20:18:59.639Z,17.95
2023-04-08T20:21:28.056Z,17.20
2023-04-08T20:23:55.773Z,15.15
2023-04-08T20:26:23.678Z,14.23
2023-04-08T20:28:51.382Z,13.53
2023-04-08T20:31:19.532Z,14.65
2023-04-08T20:33:47.266Z,15.27
2023-04-08T20:36:15.080Z,16.80
2023-04-08T20:38:42.875Z,16.42
2023-04-08T20:41:10.651Z,15.07
2023-04-08T20:43:39.604Z,14.45
2023-04-08T20:46:07.625Z,15.25
2023-04-08T20:48:36.299Z,15.05
2023-04-08T20:51:03.932Z,15.07
2023-04-08T20:53:31.590Z,14.10
2023-04-08T20:55:59.265Z,13.50
2023-04-08T20:58:26.914Z,13.13
2023-04-08T21:00:54.529Z,14.15
2023-04-08T21:03:22.049Z,14.05
2023-04-08T21:05:50.388Z,13.20
2023-04-08T21:08:17.832Z,14.25
2023-04-08T21:10:45.321Z,14.23
2023-04-08T21:13:12.746Z,13.32
2023-04-08T21:15:40.326Z,14.90
2023-04-08T21:18:09.877Z,13.33
2023-04-08T21:20:37.607Z,12.85
2023-04-08T21:23:07.275Z,13.20
2023-04-08T21:25:34.868Z,14.50
2023-04-08T21:28:02.210Z,13.27
2023-04-08T21:30:29.774Z,12.83
2023-04-08T21:32:57.318Z,14.73
2023-04-08T21:35:24.900Z,13.40
2023-04-08T21:37:52.539Z,14.75
2023-04-08T21:40:19.941Z,13.52
2023-04-08T21:42:47.833Z,14.40
2023-04-08T21:45:15.933Z,12.98
2023-04-08T21:47:43.476Z,12.80
2023-04-08T21:50:11.282Z,13.95
2023-04-08T21:52:39.152Z,13.70
2023-04-08T21:55:08.247Z,12.90
2023-04-08T21:57:35.800Z,13.68
2023-04-08T22:00:08.163Z,13.40
2023-04-08T22:02:43.842Z,12.52
2023-04-08T22:05:11.840Z,13.57
2023-04-08T22:07:39.522Z,13.00
2023-04-08T22:10:07.458Z,13.50
2023-04-08T22:12:35.008Z,13.85
2023-04-08T22:15:02.378Z,14.55
2023-04-08T22:17:29.880Z,12.70
2023-04-08T22:19:57.352Z,14.03
2023-04-08T22:22:24.777Z,13.55
2023-04-08T22:24:52.216Z,13.95
2023-04-08T22:27:20.018Z,13.40
2023-04-08T22:29:47.456Z,14.80
2023-04-08T22:32:14.920Z,14.03
2023-04-08T22:34:42.333Z,13.18
2023-04-08T22:37:09.734Z,13.05
2023-04-08T22:39:37.344Z,13.95
2023-04-08T22:42:04.770Z,14.38
2023-04-08T22:44:32.215Z,13.97
2023-04-08T22:46:59.568Z,13.18
2023-04-08T22:49:27.225Z,13.65
2023-04-08T22:51:54.636Z,13.80
2023-04-08T22:54:22.597Z,15.45
2023-04-08T22:56:49.954Z,14.43
2023-04-08T22:59:17.363Z,15.05
2023-04-08T23:01:45.320Z,15.27
2023-04-08T23:04:12.767Z,15.18
2023-04-08T23:06:40.667Z,14.18
2023-04-08T23:09:08.113Z,15.30
2023-04-08T23:11:35.588Z,14.55
2023-04-08T23:14:02.936Z,15.35
2023-04-08T23:16:31.658Z,14.65
2023-04-08T23:18:59.259Z,14.27
2023-04-08T23:21:27.145Z,14.17
2023-04-08T23:23:54.587Z,14.73
2023-04-08T23:26:22.216Z,15.75
2023-04-08T23:28:49.967Z,13.82
2023-04-08T23:31:17.720Z,15.52
2023-04-08T23:33:45.332Z,15.60
2023-04-08T23:36:12.998Z,15.25
2023-04-08T23:38:40.564Z,14.95
2023-04-08T23:41:08.574Z,15.48
2023-04-08T23:43:36.656Z,16.20
2023-04-08T23:46:04.240Z,15.13
2023-04-08T23:48:31.712Z,15.10
2023-04-08T23:50:59.118Z,15.57
2023-04-08T23:53:26.541Z,14.77
2023-04-08T23:55:53.941Z,16.60
2023-04-08T23:58:21.504Z,16.87
